Terminal Aerodrome Forecast
Issued by NWS

Home | Current Version | Previous Version | Text Only | Print | Product List | Glossary On
Versions: 1 2 3 4 5 6 7 8 9 10 11 12 13 14 15 16 17 18
000
FTUS41 KPBZ 201700
TAFBVI
TAF
KBVI 201723Z 2018/2118 22008KT P6SM OVC100
     FM202200 20005KT P6SM -SHRA OVC050
     FM210300 22004KT 5SM -SHRA BKN025
     FM210900 25006KT P6SM VCSH BKN015=

USA.gov is the U.S. government's official web portal to all federal, state and local government web resources and services.